createdAt,value
2022-11-24T00:01:31.884Z,98717.09
2022-11-24T00:04:06.200Z,98715.03
2022-11-24T00:06:36.153Z,98717.83
2022-11-24T00:09:05.718Z,98715.28
2022-11-24T00:11:36.927Z,98708.17
2022-11-24T00:14:06.477Z,98713.65
2022-11-24T00:16:36.527Z,98716.88
2022-11-24T00:19:09.485Z,98721.55
2022-11-24T00:21:38.957Z,98728.52
2022-11-24T00:24:07.513Z,98727.23
2022-11-24T00:26:37.862Z,98730.20
2022-11-24T00:29:08.091Z,98728.86
2022-11-24T00:31:41.595Z,98726.70
2022-11-24T00:34:13.504Z,98726.89
2022-11-24T00:36:42.957Z,98723.41
2022-11-24T00:39:16.154Z,98719.45
2022-11-24T00:41:45.440Z,98719.61
2022-11-24T00:44:13.933Z,98729.73
2022-11-24T00:46:42.639Z,98748.34
2022-11-24T00:49:11.145Z,98745.84
2022-11-24T00:51:39.917Z,98749.77
2022-11-24T00:54:09.484Z,98752.10
2022-11-24T00:56:37.952Z,98750.14
2022-11-24T00:59:06.432Z,98747.30
2022-11-24T01:01:34.872Z,98751.27
2022-11-24T01:04:04.027Z,98748.98
2022-11-24T01:06:35.895Z,98745.07
2022-11-24T01:09:04.712Z,98766.55
2022-11-24T01:11:55.017Z,98763.85
2022-11-24T01:14:25.565Z,98751.95
2022-11-24T01:16:54.677Z,98741.14
2022-11-24T01:19:24.282Z,98733.08
2022-11-24T01:21:52.955Z,98734.77
2022-11-24T01:24:21.685Z,98739.83
2022-11-24T01:26:50.159Z,98741.51
2022-11-24T01:29:18.691Z,98733.36
2022-11-24T01:31:47.181Z,98729.92
2022-11-24T01:34:15.627Z,98726.86
2022-11-24T01:36:44.275Z,98721.46
2022-11-24T01:39:13.689Z,98723.52
2022-11-24T01:41:42.379Z,98734.06
2022-11-24T01:44:31.736Z,98736.97
2022-11-24T01:47:38.693Z,98737.38
2022-11-24T01:50:16.573Z,98733.57
2022-11-24T01:52:52.879Z,98734.19
2022-11-24T01:55:27.505Z,98733.33
2022-11-24T01:58:08.238Z,98735.83
2022-11-24T02:00:38.640Z,98740.73
2022-11-24T02:03:08.375Z,98739.83
2022-11-24T02:05:50.866Z,98737.86
2022-11-24T02:08:30.781Z,98739.63
2022-11-24T02:11:02.629Z,98749.23
2022-11-24T02:13:34.600Z,98759.45
2022-11-24T02:16:04.800Z,98752.06
2022-11-24T02:18:34.175Z,98748.59
2022-11-24T02:21:02.645Z,98751.03
2022-11-24T02:23:44.991Z,98754.73
2022-11-24T02:26:48.933Z,98754.02
2022-11-24T02:29:17.388Z,98752.83
2022-11-24T02:31:53.268Z,98747.75
2022-11-24T02:34:21.924Z,98739.88
2022-11-24T02:36:50.816Z,98739.91
2022-11-24T02:39:19.659Z,98743.42
2022-11-24T02:41:55.063Z,98746.16
2022-11-24T02:44:30.652Z,98749.23
2022-11-24T02:47:08.922Z,98753.90
2022-11-24T02:49:37.792Z,98755.41
2022-11-24T02:52:06.949Z,98758.55
2022-11-24T02:54:36.177Z,98754.30
2022-11-24T02:57:04.997Z,98746.49
2022-11-24T02:59:33.616Z,98752.88
2022-11-24T03:02:02.075Z,98761.73
2022-11-24T03:04:30.633Z,98766.25
2022-11-24T03:06:59.212Z,98770.98
2022-11-24T03:09:27.808Z,98774.48
2022-11-24T03:11:56.280Z,98775.81
2022-11-24T03:14:26.932Z,98767.86
2022-11-24T03:16:55.504Z,98765.67
2022-11-24T03:19:23.985Z,98765.43
2022-11-24T03:21:52.570Z,98764.69
2022-11-24T03:24:21.486Z,98767.20
2022-11-24T03:26:49.926Z,98774.89
2022-11-24T03:29:18.521Z,98776.40
2022-11-24T03:31:46.982Z,98776.30
2022-11-24T03:34:15.589Z,98777.53
2022-11-24T03:36:44.158Z,98773.48
2022-11-24T03:39:12.649Z,98768.86
2022-11-24T03:41:41.424Z,98771.00
2022-11-24T03:44:09.800Z,98761.84
2022-11-24T03:46:38.440Z,98766.50
2022-11-24T03:49:06.880Z,98774.66
2022-11-24T03:51:35.668Z,98786.46
2022-11-24T03:54:04.159Z,98789.89
2022-11-24T03:56:32.692Z,98789.02
2022-11-24T03:59:01.191Z,98786.61
2022-11-24T04:01:29.829Z,98789.63
2022-11-24T04:03:58.567Z,98793.09
2022-11-24T04:06:27.170Z,98799.36
2022-11-24T04:08:55.752Z,98802.71
2022-11-24T04:11:42.964Z,98811.80
2022-11-24T04:14:13.817Z,98810.69
2022-11-24T04:16:42.411Z,98809.64
2022-11-24T04:19:10.958Z,98811.59
2022-11-24T04:21:39.665Z,98809.21
2022-11-24T04:24:08.139Z,98804.64
2022-11-24T04:26:36.761Z,98811.63
2022-11-24T04:29:05.188Z,98809.09
2022-11-24T04:31:33.649Z,98813.34
2022-11-24T04:34:02.032Z,98815.52
2022-11-24T04:36:30.600Z,98816.26
2022-11-24T04:39:19.899Z,98815.58
2022-11-24T04:41:48.443Z,98822.83
2022-11-24T04:44:17.144Z,98827.69
2022-11-24T04:46:45.620Z,98828.58
2022-11-24T04:49:14.348Z,98830.62
2022-11-24T04:51:43.295Z,98830.91
2022-11-24T04:54:13.973Z,98829.56
2022-11-24T04:56:44.057Z,98833.91
2022-11-24T04:59:15.484Z,98836.61
2022-11-24T05:01:45.995Z,98837.81
2022-11-24T05:04:16.034Z,98836.19
2022-11-24T05:06:44.462Z,98842.31
2022-11-24T05:09:16.707Z,98847.80
2022-11-24T05:11:45.130Z,98851.23
2022-11-24T05:14:13.521Z,98851.17
2022-11-24T05:16:42.117Z,98853.63
2022-11-24T05:19:10.882Z,98860.61
2022-11-24T05:21:39.497Z,98859.63
2022-11-24T05:24:08.418Z,98860.17
2022-11-24T05:26:37.074Z,98862.83
2022-11-24T05:29:05.553Z,98867.48
2022-11-24T05:31:34.184Z,98872.71
2022-11-24T05:34:02.810Z,98875.13
2022-11-24T05:36:49.845Z,98877.63
2022-11-24T05:39:18.272Z,98874.56
2022-11-24T05:41:50.566Z,98871.54
2022-11-24T05:44:19.342Z,98874.65
2022-11-24T05:46:47.928Z,98879.23
2022-11-24T05:49:16.466Z,98885.58
2022-11-24T05:51:44.939Z,98885.29
2022-11-24T05:54:13.589Z,98888.88
2022-11-24T05:56:42.118Z,98891.95
2022-11-24T05:59:10.609Z,98888.71
2022-11-24T06:01:39.190Z,98896.55
2022-11-24T06:04:07.931Z,98891.23
2022-11-24T06:06:36.613Z,98904.85
2022-11-24T06:09:05.565Z,98910.25
2022-11-24T06:11:34.058Z,98910.81
2022-11-24T06:14:04.717Z,98927.32
2022-11-24T06:16:36.884Z,98927.77
2022-11-24T06:19:05.657Z,98931.53
2022-11-24T06:21:38.367Z,98936.33
2022-11-24T06:24:09.397Z,98935.08
2022-11-24T06:26:37.966Z,98929.85
2022-11-24T06:29:06.746Z,98931.39
2022-11-24T06:31:35.794Z,98932.92
2022-11-24T06:34:11.091Z,98935.27
2022-11-24T06:36:40.017Z,98928.73
2022-11-24T06:39:08.746Z,98932.79
2022-11-24T06:41:37.461Z,98941.39
2022-11-24T06:44:06.249Z,98950.67
2022-11-24T06:46:34.844Z,98943.57
2022-11-24T06:49:03.546Z,98939.19
2022-11-24T06:51:32.398Z,98937.66
2022-11-24T06:54:00.943Z,98952.70
2022-11-24T06:56:29.723Z,98948.52
2022-11-24T06:58:58.324Z,98955.52
2022-11-24T07:01:29.275Z,98957.71
2022-11-24T07:03:58.304Z,98946.08
2022-11-24T07:06:28.862Z,98957.59
2022-11-24T07:08:57.437Z,98951.83
2022-11-24T07:11:25.982Z,98965.41
2022-11-24T07:14:00.243Z,98954.50
2022-11-24T07:16:30.107Z,98955.45
2022-11-24T07:18:59.073Z,98932.19
2022-11-24T07:21:28.683Z,98955.95
2022-11-24T07:23:58.057Z,98955.23
2022-11-24T07:26:26.963Z,98950.19
2022-11-24T07:28:55.900Z,98955.45
2022-11-24T07:31:25.318Z,98959.83
2022-11-24T07:33:55.850Z,98963.59
2022-11-24T07:36:25.184Z,98957.55
2022-11-24T07:38:53.740Z,98965.23
2022-11-24T07:41:22.407Z,98971.50
2022-11-24T07:43:51.918Z,98974.31
2022-11-24T07:46:35.578Z,98973.51
2022-11-24T07:49:04.476Z,98967.00
2022-11-24T07:51:33.125Z,98963.84
2022-11-24T07:54:01.702Z,98964.23
2022-11-24T07:56:30.267Z,98980.46
2022-11-24T07:59:01.212Z,98982.95
2022-11-24T08:01:29.847Z,98992.84
2022-11-24T08:03:58.809Z,98992.16
2022-11-24T08:06:38.495Z,98997.11
2022-11-24T08:09:09.454Z,98991.16
2022-11-24T08:11:38.077Z,99002.03
2022-11-24T08:14:06.790Z,99001.66
2022-11-24T08:16:35.521Z,99003.30
2022-11-24T08:19:04.141Z,99003.69
2022-11-24T08:21:32.799Z,99000.59
2022-11-24T08:24:17.559Z,99004.59
2022-11-24T08:26:46.202Z,99007.77
2022-11-24T08:29:14.646Z,99008.92
2022-11-24T08:31:43.367Z,99009.81
2022-11-24T08:34:11.938Z,99008.95
2022-11-24T08:36:40.531Z,99011.17
2022-11-24T08:39:12.278Z,99001.86
2022-11-24T08:41:44.846Z,99015.17
2022-11-24T08:44:16.133Z,99020.63
2022-11-24T08:46:45.501Z,99015.75
2022-11-24T08:49:15.284Z,99019.12
2022-11-24T08:51:44.286Z,99010.20
2022-11-24T08:54:15.566Z,99020.33
2022-11-24T08:56:44.579Z,99009.06
2022-11-24T08:59:14.916Z,99021.10
2022-11-24T09:01:43.502Z,99016.92
2022-11-24T09:04:12.094Z,99016.27
2022-11-24T09:06:42.102Z,99018.55
2022-11-24T09:09:22.860Z,99017.08
2022-11-24T09:11:51.332Z,99022.62
2022-11-24T09:14:19.915Z,99020.15
2022-11-24T09:16:48.591Z,99019.55
2022-11-24T09:19:17.129Z,99020.36
2022-11-24T09:21:45.693Z,99001.15
2022-11-24T09:24:14.367Z,99015.52
2022-11-24T09:26:47.333Z,99012.40
2022-11-24T09:29:16.886Z,99011.70
2022-11-24T09:31:45.487Z,99020.86
2022-11-24T09:34:16.429Z,99025.02
2022-11-24T09:36:45.198Z,99024.55
2022-11-24T09:39:14.150Z,99016.26
2022-11-24T09:42:57.118Z,99014.44
2022-11-24T09:46:08.855Z,99025.11
2022-11-24T09:48:43.224Z,99020.52
2022-11-24T09:51:15.858Z,99023.52
2022-11-24T09:53:57.460Z,99025.85
2022-11-24T09:56:35.424Z,99026.38
2022-11-24T09:59:36.156Z,99040.95
2022-11-24T10:02:13.368Z,99037.95
2022-11-24T10:04:47.097Z,99034.44
2022-11-24T10:07:29.417Z,99025.98
2022-11-24T10:10:25.192Z,99024.30
2022-11-24T10:13:00.986Z,99017.30
2022-11-24T10:15:48.171Z,99022.65
2022-11-24T10:18:54.095Z,99029.16
2022-11-24T10:21:53.610Z,99029.70
2022-11-24T10:24:43.308Z,99037.81
2022-11-24T10:27:24.352Z,99032.31
2022-11-24T10:29:53.659Z,99029.84
2022-11-24T10:32:41.327Z,99025.50
2022-11-24T10:35:23.039Z,99031.52
2022-11-24T10:38:12.178Z,99026.98
2022-11-24T10:40:57.130Z,99029.73
2022-11-24T10:43:28.692Z,99027.30
2022-11-24T10:46:40.112Z,99029.48
2022-11-24T10:49:19.162Z,99033.21
2022-11-24T10:52:09.270Z,99031.88
2022-11-24T10:54:55.923Z,99019.80
2022-11-24T10:57:40.429Z,99021.53
2022-11-24T11:00:20.783Z,99031.16
2022-11-24T11:02:51.494Z,99018.40
2022-11-24T11:05:32.426Z,99024.33
2022-11-24T11:08:34.207Z,99019.45
2022-11-24T11:11:24.247Z,99017.39
2022-11-24T11:14:03.372Z,99011.39
2022-11-24T11:16:37.965Z,98998.30
2022-11-24T11:19:52.349Z,99009.84
2022-11-24T11:22:30.679Z,99012.25
2022-11-24T11:25:11.784Z,99008.89
2022-11-24T11:27:42.362Z,99006.05
2022-11-24T11:36:16.249Z,99002.61
2022-11-24T11:38:47.395Z,99007.36
2022-11-24T11:41:46.650Z,99010.71
2022-11-24T11:44:40.557Z,99011.05
2022-11-24T11:47:18.111Z,99013.72
2022-11-24T11:49:50.012Z,99026.83
2022-11-24T11:53:01.551Z,99025.57
2022-11-24T11:55:49.691Z,99019.42
2022-11-24T11:58:35.216Z,99027.73
2022-11-24T12:01:50.592Z,99039.77
2022-11-24T12:04:34.018Z,99033.31
2022-11-24T12:07:32.400Z,99038.04
2022-11-24T12:10:13.564Z,99035.86
2022-11-24T12:13:25.685Z,99025.48
2022-11-24T12:16:06.443Z,99030.16
2022-11-24T12:19:06.670Z,99043.33
2022-11-24T12:21:55.961Z,99040.09
2022-11-24T12:24:46.335Z,99035.60
2022-11-24T12:27:33.172Z,99035.91
2022-11-24T12:30:09.420Z,99037.94
2022-11-24T12:33:12.042Z,99035.94
2022-11-24T12:35:44.420Z,99044.41
2022-11-24T12:38:23.126Z,99039.10
2022-11-24T12:41:41.610Z,99041.25
2022-11-24T12:44:48.225Z,99038.20
2022-11-24T12:47:55.080Z,99044.42
2022-11-24T12:50:31.002Z,99037.26
2022-11-24T12:53:24.610Z,99037.65
2022-11-24T12:55:55.075Z,99043.29
2022-11-24T12:58:56.677Z,99049.27
2022-11-24T13:01:45.703Z,99035.50
2022-11-24T13:05:02.233Z,99026.36
2022-11-24T13:07:57.718Z,99045.77
2022-11-24T13:10:54.923Z,99051.63
2022-11-24T13:13:16.720Z,99031.76
2022-11-24T13:18:57.494Z,99032.77
2022-11-24T13:21:43.059Z,99042.41
2022-11-24T13:24:18.475Z,99035.09
2022-11-24T13:26:51.568Z,99042.03
2022-11-24T13:29:31.638Z,99040.73
2022-11-24T13:32:06.079Z,99033.19
2022-11-24T13:34:43.556Z,99043.86
2022-11-24T13:37:34.922Z,99047.44
2022-11-24T13:40:17.977Z,99038.60
2022-11-24T13:42:56.014Z,99053.86
2022-11-24T13:45:40.309Z,99043.79
2022-11-24T13:48:22.775Z,99064.15
2022-11-24T13:50:52.042Z,99058.53
2022-11-24T13:53:32.286Z,99054.34
2022-11-24T13:56:13.054Z,99056.60
2022-11-24T13:58:46.489Z,99062.41
2022-11-24T14:01:24.394Z,99059.11
2022-11-24T14:04:35.236Z,99060.87
2022-11-24T14:07:12.690Z,99069.70
2022-11-24T14:09:48.397Z,99074.82
2022-11-24T14:12:23.009Z,99074.61
2022-11-24T14:14:57.326Z,99076.53
2022-11-24T14:17:28.782Z,99080.54
2022-11-24T14:19:58.741Z,99085.90
2022-11-24T14:22:35.312Z,99081.63
2022-11-24T14:25:04.430Z,99086.27
2022-11-24T14:27:38.891Z,99084.27
2022-11-24T14:30:10.265Z,99090.09
2022-11-24T14:32:39.122Z,99093.55
2022-11-24T14:35:34.788Z,99094.37
2022-11-24T14:38:06.090Z,99095.44
2022-11-24T14:40:52.738Z,99099.46
2022-11-24T14:43:32.547Z,99097.34
2022-11-24T14:46:09.566Z,99101.04
2022-11-24T14:48:53.511Z,99109.23
2022-11-24T14:51:29.468Z,99111.38
2022-11-24T14:54:13.960Z,99113.79
2022-11-24T14:56:59.215Z,99108.31
2022-11-24T14:59:30.869Z,99117.92
2022-11-24T15:01:59.972Z,99122.19
2022-11-24T15:05:00.816Z,99120.30
2022-11-24T15:07:29.719Z,99114.08
2022-11-24T15:10:04.493Z,99112.92
2022-11-24T15:12:41.409Z,99132.80
2022-11-24T15:15:16.015Z,99140.02
2022-11-24T15:17:55.934Z,99149.66
2022-11-24T15:20:41.533Z,99153.54
2022-11-24T15:23:33.473Z,99151.51
2022-11-24T15:26:01.901Z,99149.43
2022-11-24T15:28:31.701Z,99154.70
2022-11-24T15:31:01.519Z,99153.34
2022-11-24T15:33:31.259Z,99156.88
2022-11-24T15:36:00.296Z,99159.90
2022-11-24T15:38:28.888Z,99164.52
2022-11-24T15:41:00.829Z,99168.00
2022-11-24T15:43:35.210Z,99175.66
2022-11-24T15:46:04.958Z,99183.17
2022-11-24T15:48:33.534Z,99186.52
2022-11-24T15:51:04.860Z,99180.98
2022-11-24T15:53:39.263Z,99179.73
2022-11-24T15:56:19.509Z,99175.95
2022-11-24T15:58:48.686Z,99175.64
2022-11-24T16:01:17.223Z,99185.45
2022-11-24T16:03:47.883Z,99186.45
2022-11-24T16:06:24.770Z,99183.38
2022-11-24T16:08:55.067Z,99186.48
2022-11-24T16:11:23.586Z,99186.00
2022-11-24T16:13:54.063Z,99182.40
2022-11-24T16:16:25.549Z,99181.75
2022-11-24T16:18:54.375Z,99182.66
2022-11-24T16:21:23.413Z,99186.38
2022-11-24T16:23:52.095Z,99188.16
2022-11-24T16:26:20.577Z,99185.62
2022-11-24T16:28:48.990Z,99185.77
2022-11-24T16:31:18.621Z,99185.45
2022-11-24T16:33:47.410Z,99179.52
2022-11-24T16:36:16.334Z,99174.21
2022-11-24T16:38:45.827Z,99173.92
2022-11-24T16:41:14.693Z,99177.89
2022-11-24T16:43:43.141Z,99184.23
2022-11-24T16:46:24.382Z,99188.23
2022-11-24T16:48:55.321Z,99192.40
2022-11-24T16:51:24.592Z,99202.86
2022-11-24T16:53:59.738Z,99197.50
2022-11-24T16:56:30.225Z,99203.02
2022-11-24T16:58:58.749Z,99210.09
2022-11-24T17:01:27.394Z,99217.36
2022-11-24T17:03:56.517Z,99212.57
2022-11-24T17:06:27.104Z,99216.64
2022-11-24T17:08:56.153Z,99212.75
2022-11-24T17:11:26.946Z,99210.33
2022-11-24T17:13:58.567Z,99220.35
2022-11-24T17:16:28.039Z,99219.82
2022-11-24T17:18:58.939Z,99224.10
2022-11-24T17:21:28.756Z,99227.60
2022-11-24T17:24:01.298Z,99230.55
2022-11-24T17:26:29.825Z,99224.83
2022-11-24T17:28:58.555Z,99231.96
2022-11-24T17:31:36.062Z,99230.04
2022-11-24T17:34:06.841Z,99233.98
2022-11-24T17:36:35.861Z,99235.11
2022-11-24T17:39:07.345Z,99240.50
2022-11-24T17:41:35.947Z,99241.68
2022-11-24T17:44:04.749Z,99248.99
2022-11-24T17:46:33.686Z,99248.58
2022-11-24T17:49:02.213Z,99251.59
2022-11-24T17:51:30.709Z,99254.42
2022-11-24T17:53:59.289Z,99258.27
2022-11-24T17:56:28.401Z,99250.89
2022-11-24T17:59:00.415Z,99244.01
2022-11-24T18:01:30.404Z,99254.27
2022-11-24T18:03:59.300Z,99250.11
2022-11-24T18:06:29.096Z,99251.27
2022-11-24T18:08:58.676Z,99257.18
2022-11-24T18:11:32.411Z,99258.05
2022-11-24T18:14:04.103Z,99260.23
2022-11-24T18:16:35.039Z,99261.17
2022-11-24T18:19:11.222Z,99259.88
2022-11-24T18:21:41.829Z,99254.84
2022-11-24T18:24:12.280Z,99268.95
2022-11-24T18:26:42.700Z,99266.38
2022-11-24T18:29:11.876Z,99264.58
2022-11-24T18:31:40.656Z,99264.86
2022-11-24T18:34:09.338Z,99264.25
2022-11-24T18:36:37.897Z,99270.27
2022-11-24T18:39:09.347Z,99275.09
2022-11-24T18:41:40.001Z,99279.82
2022-11-24T18:44:08.921Z,99283.63
2022-11-24T18:46:38.168Z,99276.83
2022-11-24T18:49:07.508Z,99278.86
2022-11-24T18:51:36.372Z,99280.89
2022-11-24T18:54:05.681Z,99288.54
2022-11-24T18:56:34.442Z,99290.08
2022-11-24T18:59:03.156Z,99287.33
2022-11-24T19:01:32.545Z,99284.72
2022-11-24T19:04:03.115Z,99288.89
2022-11-24T19:06:35.328Z,99290.98
2022-11-24T19:09:11.869Z,99287.45
2022-11-24T19:11:44.111Z,99286.19
2022-11-24T19:14:18.613Z,99287.73
2022-11-24T19:16:48.465Z,99290.25
2022-11-24T19:19:17.506Z,99290.79
2022-11-24T19:21:46.226Z,99291.80
2022-11-24T19:24:14.697Z,99290.41
2022-11-24T19:26:43.339Z,99289.45
2022-11-24T19:29:11.845Z,99290.73
2022-11-24T19:31:40.622Z,99293.11
2022-11-24T19:34:09.229Z,99291.98
2022-11-24T19:36:38.069Z,99291.85
2022-11-24T19:39:07.173Z,99298.98
2022-11-24T19:41:35.818Z,99310.63
2022-11-24T19:44:04.494Z,99314.02
2022-11-24T19:46:33.671Z,99310.14
2022-11-24T19:49:02.932Z,99303.70
2022-11-24T19:51:34.425Z,99309.05
2022-11-24T19:54:04.901Z,99312.80
2022-11-24T19:56:37.022Z,99314.83
2022-11-24T19:59:06.637Z,99312.60
2022-11-24T20:01:39.541Z,99317.55
2022-11-24T20:04:12.898Z,99319.98
2022-11-24T20:06:44.848Z,99324.17
2022-11-24T20:09:16.832Z,99328.66
2022-11-24T20:11:46.238Z,99321.40
2022-11-24T20:14:17.664Z,99315.27
2022-11-24T20:16:48.100Z,99314.40
2022-11-24T20:19:18.342Z,99312.67
2022-11-24T20:21:49.605Z,99316.56
2022-11-24T20:24:25.060Z,99313.76
2022-11-24T20:26:58.639Z,99322.59
2022-11-24T20:29:29.472Z,99324.31
2022-11-24T20:31:58.514Z,99331.27
2022-11-24T20:34:27.683Z,99334.52
2022-11-24T20:36:56.436Z,99332.52
2022-11-24T20:39:28.026Z,99332.36
2022-11-24T20:41:56.784Z,99333.39
2022-11-24T20:44:26.999Z,99337.38
2022-11-24T20:46:58.450Z,99338.83
2022-11-24T20:49:28.923Z,99338.63
2022-11-24T20:51:57.767Z,99333.46
2022-11-24T20:54:26.602Z,99340.21
2022-11-24T20:56:56.100Z,99340.91
2022-11-24T20:59:25.978Z,99338.62
2022-11-24T21:01:59.378Z,99347.41
2022-11-24T21:04:28.219Z,99348.30
2022-11-24T21:06:56.952Z,99351.13
2022-11-24T21:09:27.479Z,99354.88
2022-11-24T21:11:56.158Z,99355.39
2022-11-24T21:14:24.845Z,99357.65
2022-11-24T21:16:53.612Z,99360.85
2022-11-24T21:19:22.375Z,99357.84
2022-11-24T21:21:51.007Z,99354.06
2022-11-24T21:24:22.070Z,99355.05
2022-11-24T21:26:53.132Z,99354.51
2022-11-24T21:29:23.838Z,99359.60
2022-11-24T21:31:52.912Z,99359.95
2022-11-24T21:34:21.735Z,99361.45
2022-11-24T21:36:50.300Z,99359.28
2022-11-24T21:39:19.423Z,99361.69
2022-11-24T21:41:48.069Z,99360.63
2022-11-24T21:44:17.263Z,99360.77
2022-11-24T21:46:51.077Z,99362.36
2022-11-24T21:49:24.463Z,99364.13
2022-11-24T21:51:56.128Z,99362.41
2022-11-24T21:54:25.023Z,99356.39
2022-11-24T21:56:54.677Z,99360.44
2022-11-24T21:59:24.589Z,99364.50
2022-11-24T22:01:53.325Z,99362.34
2022-11-24T22:04:21.795Z,99359.57
2022-11-24T22:06:53.305Z,99362.59
2022-11-24T22:09:23.282Z,99354.34
2022-11-24T22:11:53.387Z,99357.47
2022-11-24T22:14:22.073Z,99348.20
2022-11-24T22:16:50.784Z,99369.13
2022-11-24T22:19:20.471Z,99371.36
2022-11-24T22:21:48.947Z,99374.95
2022-11-24T22:24:18.418Z,99383.84
2022-11-24T22:26:48.469Z,99377.48
2022-11-24T22:29:17.571Z,99376.52
2022-11-24T22:31:46.187Z,99378.42
2022-11-24T22:34:14.865Z,99379.61
2022-11-24T22:36:43.621Z,99377.44
2022-11-24T22:39:13.097Z,99375.21
2022-11-24T22:41:41.710Z,99373.81
2022-11-24T22:44:10.394Z,99373.91
2022-11-24T22:46:38.978Z,99376.56
2022-11-24T22:49:07.870Z,99376.78
2022-11-24T22:51:39.458Z,99377.73
2022-11-24T22:54:12.305Z,99378.39
2022-11-24T22:56:40.925Z,99384.98
2022-11-24T22:59:09.574Z,99380.79
2022-11-24T23:01:38.567Z,99379.30
2022-11-24T23:04:07.317Z,99375.91
2022-11-24T23:06:35.973Z,99379.17
2022-11-24T23:09:06.366Z,99384.34
2022-11-24T23:11:38.877Z,99377.75
2022-11-24T23:14:13.077Z,99378.02
2022-11-24T23:16:42.648Z,99380.23
2022-11-24T23:19:11.385Z,99382.33
2022-11-24T23:21:40.483Z,99385.77
2022-11-24T23:24:11.131Z,99384.22
2022-11-24T23:26:41.236Z,99388.30
2022-11-24T23:29:10.967Z,99390.02
2022-11-24T23:31:42.345Z,99390.64
2022-11-24T23:34:11.190Z,99386.60
2022-11-24T23:36:39.831Z,99392.82
2022-11-24T23:39:12.849Z,99390.48
2022-11-24T23:41:41.704Z,99398.65
2022-11-24T23:44:10.387Z,99398.48
2022-11-24T23:46:39.072Z,99394.83
2022-11-24T23:49:07.759Z,99398.89
2022-11-24T23:51:36.443Z,99403.95
2022-11-24T23:54:09.977Z,99408.48
2022-11-24T23:56:38.976Z,99408.65
2022-11-24T23:59:11.971Z,99401.52
